Terminal Aerodrome Forecast
Issued by NWS

Home | Current Version | Previous Version | Text Only | Print | Product List | Glossary On
Versions: 1 2 3 4 5 6 7 8 9 10 11 12 13 14 15 16 17 18 19 20 21 22 23 24 25 26 27 28 29 30 31 32 33
312
FTUS44 KFWD 252101 AAB
TAFFTW
TAF AMD
KFTW 252101Z 2521/2618 01005KT 6SM -SHRA VCTS SCT010 BKN045CB
      TEMPO 2521/2523 BKN008CB
     FM252300 36007KT P6SM -SHRA SCT010 BKN050 OVC120
     FM260200 01014KT P6SM -SHRA BKN015
     FM261200 36012KT P6SM -SHRA BKN030
     FM261700 36011KT P6SM BKN050=

USA.gov is the U.S. government's official web portal to all federal, state and local government web resources and services.